Time;durP1;ratioP1;P1;durP2;ratioP2;P2;SDS_P1;SDS_P2;PMS_P1;PMS_P2;Temp;Humidity;BMP_temperature;BMP_pressure;BME280_temperature;BME280_humidity;BME280_pressure;Samples;Min_cycle;Max_cycle;Signal;HPM_P1;HPM_P2
2021/04/28 00:01:51;;;;;;;26.60;14.45;;;9.40;73.30;;;;;;5051687;28;20100;-73
2021/04/28 00:04:17;;;;;;;22.90;15.55;;;9.40;73.50;;;;;;5051723;28;20040;-73
2021/04/28 00:06:45;;;;;;;21.02;14.10;;;9.60;72.90;;;;;;5051117;28;20376;-73
2021/04/28 00:09:11;;;;;;;26.73;14.48;;;9.50;71.40;;;;;;5033739;28;20021;-73
2021/04/28 00:11:37;;;;;;;20.73;14.98;;;9.40;72.40;;;;;;5052761;28;20029;-73
2021/04/28 00:14:04;;;;;;;20.23;13.73;;;9.50;72.50;;;;;;5055885;28;20384;-71
2021/04/28 00:16:31;;;;;;;24.30;13.85;;;9.50;72.30;;;;;;5037516;28;20477;-72
2021/04/28 00:18:56;;;;;;;24.77;14.52;;;9.70;71.80;;;;;;5037623;28;20120;-72
2021/04/28 00:21:22;;;;;;;23.85;15.20;;;9.90;71.10;;;;;;5055552;28;20067;-72
2021/04/28 00:23:48;;;;;;;20.15;14.30;;;9.80;70.90;;;;;;5037590;28;20029;-72
2021/04/28 00:26:16;;;;;;;22.92;13.48;;;9.50;70.50;;;;;;5037427;28;20025;-72
2021/04/28 00:28:43;;;;;;;17.92;12.77;;;9.30;71.20;;;;;;5055322;28;20071;-72
2021/04/28 00:31:09;;;;;;;19.88;14.85;;;9.30;72.10;;;;;;5055295;28;20116;-72
2021/04/28 00:33:34;;;;;;;20.33;14.00;;;9.50;72.50;;;;;;5055151;28;20120;-72
2021/04/28 00:36:00;;;;;;;21.73;14.73;;;9.50;71.70;;;;;;5054919;28;20025;-72
2021/04/28 00:38:26;;;;;;;18.58;13.18;;;9.20;71.00;;;;;;5055152;28;20025;-72
2021/04/28 00:40:53;;;;;;;21.35;13.05;;;8.90;71.50;;;;;;5054947;28;20017;-72
2021/04/28 00:43:19;;;;;;;27.48;13.60;;;8.70;72.70;;;;;;5055005;28;20033;-72
2021/04/28 00:45:46;;;;;;;23.63;12.88;;;8.50;73.30;;;;;;5037155;28;20027;-72
2021/04/28 00:48:12;;;;;;;19.58;13.23;;;8.30;74.70;;;;;;5037185;28;20025;-72
2021/04/28 00:50:40;;;;;;;19.15;14.02;;;8.20;75.30;;;;;;5054885;28;20027;-71
2021/04/28 00:53:08;;;;;;;23.00;14.60;;;8.40;76.10;;;;;;5054893;28;20366;-71
2021/04/28 00:55:35;;;;;;;19.75;13.50;;;8.40;76.10;;;;;;5036824;28;20095;-71
2021/04/28 00:58:02;;;;;;;18.90;12.90;;;8.40;75.70;;;;;;5037075;28;20100;-72
2021/04/28 01:00:28;;;;;;;18.25;12.35;;;8.40;74.80;;;;;;5054613;28;20013;-72
2021/04/28 01:02:54;;;;;;;20.65;13.15;;;8.20;74.80;;;;;;5054741;28;20051;-72
2021/04/28 01:05:20;;;;;;;20.17;13.38;;;8.00;75.10;;;;;;5054597;28;20071;-72
2021/04/28 01:07:48;;;;;;;19.75;13.27;;;7.80;76.10;;;;;;5053975;28;20484;-72
2021/04/28 01:10:18;;;;;;;21.00;13.70;;;7.60;76.90;;;;;;5054323;28;20020;-72
2021/04/28 01:12:44;;;;;;;18.90;12.55;;;7.60;77.40;;;;;;5054483;28;20119;-72
2021/04/28 01:15:18;;;;;;;21.45;12.82;;;7.80;78.20;;;;;;5054244;28;20033;-72
2021/04/28 01:17:44;;;;;;;27.17;14.35;;;7.80;76.10;;;;;;5036397;28;20020;-72
2021/04/28 01:20:13;;;;;;;19.50;13.75;;;7.90;76.40;;;;;;5054527;28;20032;-72
2021/04/28 01:22:40;;;;;;;27.27;15.32;;;8.00;77.50;;;;;;5054209;28;20025;-72
2021/04/28 01:25:09;;;;;;;22.27;14.68;;;8.10;77.70;;;;;;5035929;28;20120;-72
2021/04/28 01:27:38;;;;;;;23.02;14.15;;;8.10;77.60;;;;;;5054032;28;20040;-72
2021/04/28 01:30:06;;;;;;;19.75;14.10;;;8.20;77.00;;;;;;5054121;28;20029;-72
2021/04/28 01:32:34;;;;;;;21.23;14.35;;;8.40;77.00;;;;;;5036282;28;20025;-72
2021/04/28 01:35:00;;;;;;;24.35;14.50;;;8.40;76.80;;;;;;5053918;28;20074;-72
2021/04/28 01:37:27;;;;;;;25.38;13.70;;;8.60;76.60;;;;;;5053869;28;20024;-72
2021/04/28 01:39:55;;;;;;;24.85;15.02;;;8.70;76.10;;;;;;5036008;28;20112;-72
2021/04/28 01:42:22;;;;;;;25.85;14.80;;;8.70;76.20;;;;;;5053951;28;20373;-72
2021/04/28 01:44:50;;;;;;;20.95;14.05;;;8.80;75.90;;;;;;5036134;28;20025;-72
2021/04/28 01:47:18;;;;;;;19.50;13.40;;;8.90;74.90;;;;;;5053800;28;20534;-72
2021/04/28 01:49:45;;;;;;;20.85;13.57;;;9.10;75.40;;;;;;5036088;28;20025;-72
2021/04/28 01:52:11;;;;;;;22.55;13.93;;;9.10;74.40;;;;;;5053674;28;20037;-72
2021/04/28 01:54:37;;;;;;;17.33;12.93;;;9.00;74.10;;;;;;5053494;28;20029;-72
2021/04/28 01:57:04;;;;;;;20.83;12.80;;;9.00;73.70;;;;;;5035685;28;20092;-72
2021/04/28 01:59:31;;;;;;;21.25;14.13;;;8.90;73.40;;;;;;5053616;28;20021;-72
2021/04/28 02:01:58;;;;;;;17.85;13.38;;;8.60;73.60;;;;;;5053666;28;20032;-72
2021/04/28 02:04:23;;;;;;;21.95;12.80;;;8.30;73.90;;;;;;5035784;28;20025;-72
2021/04/28 02:06:50;;;;;;;20.95;14.60;;;8.00;74.80;;;;;;5052816;28;20028;-72
2021/04/28 02:09:16;;;;;;;17.90;12.77;;;7.70;76.40;;;;;;5053474;28;20025;-72
2021/04/28 02:11:42;;;;;;;19.45;12.57;;;7.40;76.20;;;;;;5053375;28;20025;-72
2021/04/28 02:14:11;;;;;;;23.58;14.60;;;7.00;77.40;;;;;;5053418;28;20033;-72
2021/04/28 02:16:39;;;;;;;22.88;13.80;;;6.90;77.80;;;;;;5053014;28;20540;-72
2021/04/28 02:19:09;;;;;;;25.70;15.45;;;6.80;78.90;;;;;;5035364;28;20025;-72
2021/04/28 02:21:40;;;;;;;24.52;16.83;;;6.80;79.50;;;;;;5053197;28;20520;-72
2021/04/28 02:24:08;;;;;;;33.15;16.17;;;6.90;81.20;;;;;;5018826;28;20021;-71
2021/04/28 02:26:35;;;;;;;29.17;15.80;;;7.10;80.80;;;;;;5052850;28;20025;-72
2021/04/28 02:29:00;;;;;;;29.27;15.95;;;7.30;79.70;;;;;;5053101;28;20642;-72
2021/04/28 02:31:26;;;;;;;24.17;15.63;;;7.40;79.40;;;;;;5034953;28;20036;-71
2021/04/28 02:33:52;;;;;;;23.20;16.15;;;7.60;79.60;;;;;;5053041;28;20039;-72
2021/04/28 02:36:18;;;;;;;26.88;15.52;;;7.80;78.90;;;;;;5033824;28;20477;-72
2021/04/28 02:38:44;;;;;;;24.75;15.35;;;7.60;77.90;;;;;;5052742;28;20029;-72
2021/04/28 02:41:13;;;;;;;26.70;14.80;;;7.70;79.20;;;;;;5052632;28;20500;-72
2021/04/28 02:43:40;;;;;;;29.70;18.00;;;7.80;78.50;;;;;;5052880;28;20495;-72
2021/04/28 02:46:10;;;;;;;26.50;15.20;;;7.80;77.70;;;;;;5052384;28;20037;-72
2021/04/28 02:48:37;;;;;;;21.38;15.65;;;7.60;77.90;;;;;;5052637;28;20025;-72
2021/04/28 02:51:04;;;;;;;33.33;19.65;;;7.50;77.70;;;;;;5052490;28;20032;-72
2021/04/28 02:53:31;;;;;;;37.90;18.77;;;7.50;77.90;;;;;;5052540;28;20033;-72
2021/04/28 02:55:58;;;;;;;23.67;16.45;;;7.50;78.90;;;;;;5052268;28;20541;-72
2021/04/28 02:58:25;;;;;;;32.90;19.80;;;7.50;77.90;;;;;;5052462;28;20044;-72
2021/04/28 03:00:55;;;;;;;37.55;21.02;;;7.50;78.40;;;;;;5052371;28;20024;-72
2021/04/28 03:03:21;;;;;;;37.65;20.17;;;7.30;78.40;;;;;;5052429;28;20024;-72
2021/04/28 03:05:51;;;;;;;35.58;19.48;;;7.30;78.90;;;;;;5034203;28;20037;-72
2021/04/28 03:08:18;;;;;;;39.47;21.02;;;7.30;78.40;;;;;;5033968;28;20120;-72
2021/04/28 03:10:45;;;;;;;31.73;19.77;;;7.30;79.00;;;;;;5052301;28;20067;-72
2021/04/28 03:13:11;;;;;;;40.45;21.98;;;7.50;78.70;;;;;;5034404;28;20037;-72
2021/04/28 03:15:37;;;;;;;51.15;25.58;;;7.60;78.30;;;;;;5051869;28;20040;-72
2021/04/28 03:18:03;;;;;;;34.83;20.67;;;7.60;77.70;;;;;;5052175;28;20021;-71
2021/04/28 03:20:30;;;;;;;32.33;18.63;;;7.40;77.70;;;;;;5034380;28;20114;-72
2021/04/28 03:22:56;;;;;;;34.83;19.83;;;7.30;78.50;;;;;;5034126;28;20150;-72
2021/04/28 03:25:22;;;;;;;39.72;18.58;;;7.50;79.50;;;;;;5051741;28;20104;-72
2021/04/28 03:27:49;;;;;;;33.50;17.10;;;7.70;78.90;;;;;;5051751;28;20029;-72
2021/04/28 03:30:15;;;;;;;31.58;17.88;;;7.50;77.40;;;;;;5051921;28;20048;-72
2021/04/28 03:32:41;;;;;;;37.55;20.08;;;7.20;77.30;;;;;;5051753;28;20033;-71
2021/04/28 03:35:07;;;;;;;28.27;18.10;;;6.90;78.80;;;;;;5033907;28;20091;-71
2021/04/28 03:37:33;;;;;;;26.98;17.13;;;6.70;78.70;;;;;;5051572;28;20395;-72
2021/04/28 03:39:59;;;;;;;32.45;18.35;;;6.50;79.80;;;;;;5052000;28;20100;-72
2021/04/28 03:42:25;;;;;;;33.85;18.75;;;6.40;81.60;;;;;;5051651;28;20068;-72
2021/04/28 03:44:55;;;;;;;31.10;15.90;;;6.60;81.00;;;;;;5051573;28;20029;-71
2021/04/28 03:47:21;;;;;;;25.63;15.15;;;6.60;81.30;;;;;;5033348;28;20029;-71
2021/04/28 03:49:48;;;;;;;25.85;15.80;;;6.80;81.40;;;;;;5051868;28;20025;-71
2021/04/28 03:52:14;;;;;;;40.28;16.27;;;6.90;80.20;;;;;;5033739;28;20074;-72
2021/04/28 03:54:40;;;;;;;26.73;15.18;;;6.70;80.80;;;;;;5051707;28;20032;-71
2021/04/28 03:57:06;;;;;;;25.15;15.55;;;6.90;81.30;;;;;;5033716;28;20022;-71
2021/04/28 03:59:34;;;;;;;25.23;14.45;;;7.00;79.60;;;;;;5051785;28;20066;-72
2021/04/28 04:02:00;;;;;;;21.85;14.77;;;7.10;80.10;;;;;;5033952;28;20040;-72
2021/04/28 04:04:25;;;;;;;20.98;13.68;;;7.20;78.60;;;;;;5051661;28;20021;-72
2021/04/28 04:06:51;;;;;;;25.75;15.15;;;7.20;77.90;;;;;;5051176;28;20025;-72
2021/04/28 04:09:17;;;;;;;27.73;15.80;;;7.20;78.80;;;;;;5051666;28;20025;-72
2021/04/28 04:11:43;;;;;;;22.13;13.50;;;7.10;79.20;;;;;;5051594;28;20122;-72
2021/04/28 04:14:08;;;;;;;30.75;15.13;;;6.90;78.70;;;;;;5051578;28;20025;-71
2021/04/28 04:16:34;;;;;;;20.90;14.25;;;6.90;80.30;;;;;;5051163;28;20071;-71
2021/04/28 04:19:00;;;;;;;31.98;16.25;;;7.00;81.00;;;;;;5033345;28;20416;-71
2021/04/28 04:21:25;;;;;;;27.17;15.52;;;7.10;80.40;;;;;;5033411;28;20493;-72
2021/04/28 04:23:54;;;;;;;24.02;14.80;;;7.10;80.20;;;;;;5051412;28;20104;-71
2021/04/28 04:26:19;;;;;;;27.27;13.98;;;6.90;79.90;;;;;;5050945;28;20021;-72
2021/04/28 04:28:45;;;;;;;25.23;14.25;;;7.00;80.30;;;;;;5051401;28;20380;-72
2021/04/28 04:31:11;;;;;;;24.45;13.30;;;6.90;81.40;;;;;;5051340;28;20025;-72
2021/04/28 04:33:37;;;;;;;20.10;13.93;;;6.90;82.00;;;;;;5051276;28;20025;-72
2021/04/28 04:36:03;;;;;;;22.40;13.70;;;6.90;81.90;;;;;;5051130;28;20542;-72
2021/04/28 04:38:28;;;;;;;27.48;13.95;;;7.00;82.80;;;;;;5033288;28;20028;-72
2021/04/28 04:40:54;;;;;;;25.33;14.07;;;7.30;82.80;;;;;;5051185;28;20028;-72
2021/04/28 04:43:20;;;;;;;23.25;14.50;;;7.60;82.80;;;;;;5051210;28;20095;-72
2021/04/28 04:45:46;;;;;;;23.88;14.48;;;7.60;79.40;;;;;;5051136;28;20032;-72
2021/04/28 04:48:12;;;;;;;24.50;14.65;;;7.40;78.10;;;;;;5033193;28;20079;-72
2021/04/28 04:50:38;;;;;;;31.23;16.20;;;7.20;79.10;;;;;;5051278;28;20082;-72
2021/04/28 04:53:05;;;;;;;30.27;16.05;;;7.20;78.70;;;;;;5051066;28;20021;-71
2021/04/28 04:55:31;;;;;;;25.50;15.93;;;7.40;79.80;;;;;;5050811;28;20021;-72
2021/04/28 04:57:57;;;;;;;34.42;16.77;;;7.40;77.50;;;;;;5050993;28;20017;-71
2021/04/28 05:00:23;;;;;;;28.98;16.85;;;7.00;79.00;;;;;;5054672;28;20040;-72
2021/04/28 05:02:50;;;;;;;27.23;16.52;;;7.00;80.30;;;;;;5054522;28;20376;-72
2021/04/28 05:05:15;;;;;;;24.60;14.32;;;7.20;80.60;;;;;;5036612;28;20021;-72
2021/04/28 05:07:42;;;;;;;25.20;14.48;;;7.50;80.30;;;;;;5053193;28;20036;-72
2021/04/28 05:10:09;;;;;;;30.63;13.85;;;7.70;79.80;;;;;;5050582;28;20136;-72
2021/04/28 05:12:36;;;;;;;30.73;14.43;;;7.90;79.50;;;;;;5052079;28;20037;-72
2021/04/28 05:15:02;;;;;;;29.20;16.25;;;8.00;79.00;;;;;;5052699;28;20433;-72
2021/04/28 05:17:27;;;;;;;27.65;14.65;;;8.20;79.70;;;;;;5051618;28;20025;-72
2021/04/28 05:19:53;;;;;;;45.88;15.90;;;8.20;78.30;;;;;;5052706;28;20487;-72
2021/04/28 05:22:23;;;;;;;21.52;13.80;;;8.20;78.30;;;;;;5053073;28;20025;-72
2021/04/28 05:24:49;;;;;;;32.20;12.77;;;8.30;79.20;;;;;;5052970;28;20029;-72
2021/04/28 05:27:15;;;;;;;38.83;13.70;;;8.30;80.30;;;;;;5052425;28;20021;-72
2021/04/28 05:29:41;;;;;;;38.28;18.40;;;8.30;80.90;;;;;;5053325;28;20057;-72
2021/04/28 05:32:06;;;;;;;34.17;14.63;;;8.50;81.70;;;;;;5052922;28;20120;-72
2021/04/28 05:34:32;;;;;;;25.27;14.95;;;8.70;82.00;;;;;;5051254;28;20029;-72
2021/04/28 05:36:58;;;;;;;32.10;14.40;;;8.80;82.40;;;;;;5052522;28;20021;-72
2021/04/28 05:39:24;;;;;;;29.63;13.68;;;8.90;82.30;;;;;;5053417;28;20032;-72
2021/04/28 05:41:50;;;;;;;30.58;13.40;;;8.90;83.10;;;;;;5049620;28;20591;-72
2021/04/28 05:44:16;;;;;;;22.45;12.73;;;9.00;82.70;;;;;;5051593;28;20021;-72
2021/04/28 05:46:41;;;;;;;35.10;18.30;;;9.10;82.10;;;;;;5052403;28;20031;-72
2021/04/28 05:49:07;;;;;;;28.88;14.07;;;9.20;82.90;;;;;;5053333;28;20112;-74
2021/04/28 05:51:33;;;;;;;22.23;13.32;;;9.30;83.80;;;;;;5043012;28;20056;-72
2021/04/28 05:53:59;;;;;;;29.50;14.82;;;9.30;84.20;;;;;;5051708;28;20545;-72
2021/04/28 05:56:25;;;;;;;42.00;20.85;;;9.50;85.00;;;;;;5052403;28;20459;-72
2021/04/28 05:58:50;;;;;;;55.28;22.83;;;9.50;85.50;;;;;;5051586;28;20534;-72
2021/04/28 06:01:16;;;;;;;61.05;25.83;;;9.90;84.80;;;;;;5064937;22;20034;-75
2021/04/28 06:03:42;;;;;;;44.55;22.67;;;10.10;83.20;;;;;;5047143;28;20472;-74
2021/04/28 06:06:08;;;;;;;46.20;22.58;;;10.30;82.50;;;;;;5041374;28;20028;-74
2021/04/28 06:08:35;;;;;;;46.67;21.88;;;10.60;81.40;;;;;;5039233;28;20060;-74
2021/04/28 06:11:01;;;;;;;49.95;21.10;;;10.60;79.30;;;;;;5051853;28;20074;-74
2021/04/28 06:13:27;;;;;;;65.85;25.90;;;10.70;78.90;;;;;;5035386;28;20109;-75
2021/04/28 06:15:53;;;;;;;55.80;21.88;;;10.90;78.40;;;;;;5026773;28;20116;-74
2021/04/28 06:18:18;;;;;;;52.92;20.58;;;10.90;78.30;;;;;;5051569;28;20120;-74
2021/04/28 06:20:44;;;;;;;32.28;16.40;;;10.90;78.90;;;;;;5034153;28;20021;-74
2021/04/28 06:23:10;;;;;;;21.95;12.80;;;11.00;77.90;;;;;;5040659;28;20220;-74
2021/04/28 06:25:36;;;;;;;19.90;12.35;;;11.20;77.30;;;;;;5051966;28;20120;-74
2021/04/28 06:28:02;;;;;;;18.23;11.07;;;11.30;77.30;;;;;;5047971;28;20029;-74
2021/04/28 06:30:28;;;;;;;20.95;11.65;;;11.30;77.80;;;;;;5051692;28;20059;-74
2021/04/28 06:32:54;;;;;;;23.38;11.68;;;11.20;77.90;;;;;;5034063;28;20029;-73
2021/04/28 06:35:20;;;;;;;19.98;12.02;;;11.30;78.80;;;;;;5033656;28;20029;-74
2021/04/28 06:37:46;;;;;;;24.65;12.02;;;11.40;78.70;;;;;;5051572;28;20028;-75
2021/04/28 06:40:13;;;;;;;20.38;13.98;;;11.50;77.90;;;;;;5051288;28;20473;-74
2021/04/28 06:42:39;;;;;;;22.30;13.15;;;11.70;77.00;;;;;;5034022;28;20025;-74
2021/04/28 06:45:06;;;;;;;20.65;11.45;;;11.80;76.30;;;;;;5037438;28;20396;-74
2021/04/28 06:47:32;;;;;;;19.08;10.98;;;11.90;76.60;;;;;;5050781;28;20028;-74
2021/04/28 06:49:58;;;;;;;15.80;11.02;;;12.10;76.90;;;;;;5036800;28;20032;-74
2021/04/28 06:52:24;;;;;;;17.13;11.77;;;12.30;76.00;;;;;;5051256;28;20051;-74
2021/04/28 06:54:50;;;;;;;20.88;10.25;;;12.30;75.90;;;;;;5032721;28;20039;-74
2021/04/28 06:57:16;;;;;;;14.55;10.50;;;12.40;75.50;;;;;;5043759;28;20013;-74
2021/04/28 06:59:42;;;;;;;24.20;10.95;;;12.60;74.50;;;;;;5042432;28;20047;-73
2021/04/28 07:02:07;;;;;;;15.93;10.85;;;12.80;73.70;;;;;;5050225;28;20033;-74
2021/04/28 07:04:34;;;;;;;17.80;11.13;;;13.00;71.80;;;;;;5047212;28;20468;-74
2021/04/28 07:06:59;;;;;;;19.17;11.40;;;13.20;70.80;;;;;;5042100;28;20692;-75
2021/04/28 07:09:25;;;;;;;18.35;11.68;;;13.20;70.70;;;;;;5051371;28;20036;-74
2021/04/28 07:11:51;;;;;;;20.38;11.13;;;13.20;70.60;;;;;;5033194;28;20021;-74
2021/04/28 07:14:17;;;;;;;13.15;9.80;;;13.30;70.70;;;;;;5034432;28;20021;-73
2021/04/28 07:16:44;;;;;;;18.95;11.35;;;13.30;71.30;;;;;;5032184;28;20021;-74
2021/04/28 07:19:10;;;;;;;20.02;11.38;;;13.30;70.60;;;;;;5035381;28;20028;-74
2021/04/28 07:21:36;;;;;;;19.00;13.02;;;13.40;71.10;;;;;;5046095;28;20040;-74
2021/04/28 07:24:02;;;;;;;21.15;12.18;;;13.40;70.90;;;;;;5050097;28;20033;-74
2021/04/28 07:26:28;;;;;;;33.95;13.38;;;13.30;71.20;;;;;;5039499;28;20060;-73
2021/04/28 07:28:54;;;;;;;17.35;10.50;;;13.20;71.70;;;;;;5037853;28;20423;-73
2021/04/28 07:31:21;;;;;;;17.98;11.05;;;13.40;70.50;;;;;;5050250;28;20025;-74
2021/04/28 07:33:47;;;;;;;28.02;11.52;;;13.70;69.70;;;;;;5041194;28;20060;-73
2021/04/28 07:36:13;;;;;;;18.63;11.25;;;13.80;69.00;;;;;;5041262;28;20151;-74
2021/04/28 07:38:40;;;;;;;14.35;11.30;;;13.90;68.70;;;;;;5026808;28;20017;-74
2021/04/28 07:41:07;;;;;;;18.23;11.95;;;14.10;68.70;;;;;;5050106;28;20096;-74
2021/04/28 07:43:33;;;;;;;14.88;10.68;;;14.30;67.70;;;;;;5037732;28;20028;-74
2021/04/28 07:45:59;;;;;;;19.05;11.68;;;14.50;66.20;;;;;;5050141;28;20032;-75
2021/04/28 07:48:26;;;;;;;17.38;11.85;;;14.60;65.40;;;;;;5032086;28;20021;-74
2021/04/28 07:50:52;;;;;;;20.55;11.40;;;14.70;64.50;;;;;;5050698;28;20103;-74
2021/04/28 07:53:18;;;;;;;17.30;11.13;;;14.90;64.40;;;;;;5050096;28;20025;-74
2021/04/28 07:55:47;;;;;;;26.58;13.10;;;14.90;64.40;;;;;;5020871;28;20036;-74
2021/04/28 07:58:15;;;;;;;20.10;10.77;;;15.10;62.70;;;;;;5049996;28;20392;-74
2021/04/28 08:00:41;;;;;;;17.60;11.35;;;15.30;63.10;;;;;;5035903;28;20040;-74
2021/04/28 08:03:07;;;;;;;20.60;10.82;;;15.30;63.70;;;;;;5046699;28;20617;-74
2021/04/28 08:05:33;;;;;;;22.95;11.13;;;15.30;63.20;;;;;;5049987;28;20068;-74
2021/04/28 08:07:59;;;;;;;17.83;11.35;;;15.30;63.20;;;;;;5025517;28;20048;-74
2021/04/28 08:10:25;;;;;;;22.75;11.18;;;15.50;62.10;;;;;;5049709;28;20037;-73
2021/04/28 08:12:51;;;;;;;22.83;11.52;;;15.70;61.70;;;;;;5050392;28;20415;-73
2021/04/28 08:15:17;;;;;;;19.60;11.65;;;15.90;61.00;;;;;;5043772;28;20039;-74
2021/04/28 08:17:44;;;;;;;20.77;10.73;;;16.00;59.80;;;;;;5049975;28;20029;-73
2021/04/28 08:20:11;;;;;;;24.15;11.38;;;15.90;59.20;;;;;;5041011;28;20049;-74
2021/04/28 08:22:37;;;;;;;17.40;10.20;;;15.90;59.00;;;;;;5042326;28;20435;-72
2021/04/28 08:25:06;;;;;;;18.85;11.07;;;16.20;58.90;;;;;;5050194;28;20021;-75
2021/04/28 08:27:32;;;;;;;17.85;10.60;;;16.30;57.60;;;;;;5049485;28;20063;-74
2021/04/28 08:29:58;;;;;;;20.75;10.93;;;16.70;56.60;;;;;;5048853;28;20137;-75
2021/04/28 08:32:24;;;;;;;22.60;11.80;;;16.80;56.00;;;;;;5049768;28;20049;-74
2021/04/28 08:34:50;;;;;;;15.35;9.15;;;17.00;56.80;;;;;;5052674;28;20061;-74
2021/04/28 08:37:16;;;;;;;22.85;10.73;;;17.40;56.20;;;;;;5028580;28;20025;-75
2021/04/28 08:39:42;;;;;;;18.65;9.95;;;17.70;55.30;;;;;;5053765;28;20031;-74
2021/04/28 08:42:09;;;;;;;18.52;10.55;;;18.00;54.20;;;;;;5039337;28;20110;-75
2021/04/28 08:44:35;;;;;;;17.38;9.77;;;18.20;53.30;;;;;;5050874;28;20470;-75
2021/04/28 08:47:01;;;;;;;16.05;9.23;;;18.00;51.80;;;;;;5053455;28;20024;-75
2021/04/28 08:49:27;;;;;;;23.75;12.02;;;17.90;52.40;;;;;;5045522;28;20035;-75
2021/04/28 08:51:53;;;;;;;20.00;10.43;;;18.10;53.50;;;;;;5053290;28;20108;-75
2021/04/28 08:54:19;;;;;;;15.65;9.40;;;18.20;53.00;;;;;;5037749;28;20362;-75
2021/04/28 08:56:53;;;;;;;19.10;9.40;;;18.40;51.80;;;;;;5053676;28;20078;-75
2021/04/28 08:59:20;;;;;;;14.70;8.88;;;18.90;51.10;;;;;;5049876;28;20540;-75
2021/04/28 09:01:47;;;;;;;16.23;9.73;;;18.90;51.30;;;;;;5021671;28;20025;-73
2021/04/28 09:04:16;;;;;;;16.83;9.40;;;19.20;50.40;;;;;;5053649;28;20079;-75
2021/04/28 09:06:43;;;;;;;19.50;9.57;;;19.20;50.40;;;;;;5052558;28;20037;-75
2021/04/28 09:09:17;;;;;;;15.07;10.05;;;19.20;50.30;;;;;;5023322;28;20025;-75
2021/04/28 09:11:48;;;;;;;12.77;8.98;;;19.40;50.30;;;;;;5052819;28;20025;-75
2021/04/28 09:14:19;;;;;;;24.13;10.55;;;19.70;49.50;;;;;;5040315;28;20029;-75
2021/04/28 09:16:54;;;;;;;15.30;9.77;;;19.90;48.70;;;;;;5052302;28;20384;-75
2021/04/28 09:22:08;;;;;;;18.25;9.63;;;20.40;47.40;;;;;;5051526;28;20031;-74
2021/04/28 09:24:50;;;;;;;12.85;9.40;;;20.50;47.50;;;;;;5039641;28;20036;-75
2021/04/28 09:27:38;;;;;;;18.23;9.00;;;20.80;46.80;;;;;;5028232;28;20365;-75
2021/04/28 09:30:08;;;;;;;14.40;9.73;;;20.70;46.50;;;;;;5040273;28;20150;-75
2021/04/28 09:32:36;;;;;;;14.68;9.77;;;20.70;47.20;;;;;;5035086;28;20051;-75
2021/04/28 09:35:22;;;;;;;15.65;9.40;;;21.10;46.20;;;;;;5044144;28;20039;-75
2021/04/28 09:37:56;;;;;;;13.65;9.98;;;21.30;48.60;;;;;;5048620;28;20032;-75
2021/04/28 09:40:38;;;;;;;19.27;9.52;;;21.70;47.90;;;;;;5052193;28;20029;-75
2021/04/28 09:43:04;;;;;;;18.77;9.85;;;21.80;47.60;;;;;;5046217;28;20036;-75
2021/04/28 09:45:45;;;;;;;28.67;10.65;;;22.20;47.10;;;;;;5043674;28;20028;-75
2021/04/28 09:48:17;;;;;;;14.30;10.00;;;21.90;47.20;;;;;;5048885;28;20423;-75
2021/04/28 09:50:43;;;;;;;15.35;9.20;;;21.90;46.40;;;;;;5048187;28;20025;-74
2021/04/28 09:53:24;;;;;;;21.67;10.15;;;21.70;46.40;;;;;;5046341;28;20040;-75
2021/04/28 09:55:50;;;;;;;17.92;9.50;;;22.00;47.00;;;;;;5033667;28;20025;-75
2021/04/28 09:58:16;;;;;;;11.57;9.38;;;22.40;47.00;;;;;;5037464;28;20029;-75
2021/04/28 10:00:41;;;;;;;16.95;10.32;;;22.70;45.60;;;;;;5039846;28;20098;-75
2021/04/28 10:03:09;;;;;;;15.23;10.63;;;22.90;45.10;;;;;;5051770;28;20025;-73
2021/04/28 10:05:37;;;;;;;19.02;10.43;;;22.60;44.90;;;;;;5051785;28;20056;-74
2021/04/28 10:08:08;;;;;;;13.60;10.48;;;22.40;46.00;;;;;;5026333;28;20029;-75
2021/04/28 10:10:35;;;;;;;12.48;10.18;;;22.10;46.20;;;;;;5052259;28;20040;-75
2021/04/28 10:13:02;;;;;;;12.85;9.20;;;22.30;45.30;;;;;;5040328;28;20040;-75
2021/04/28 10:15:27;;;;;;;15.85;10.38;;;22.80;45.00;;;;;;5052799;28;20028;-74
2021/04/28 10:17:54;;;;;;;11.50;9.13;;;22.90;43.70;;;;;;5052504;28;20051;-75
2021/04/28 10:20:20;;;;;;;18.63;10.18;;;23.00;45.00;;;;;;5036524;28;20021;-75
2021/04/28 10:22:47;;;;;;;13.27;10.07;;;23.30;43.90;;;;;;5041513;28;20039;-74
2021/04/28 10:25:14;;;;;;;14.25;9.63;;;23.10;44.20;;;;;;5042697;28;20096;-75
2021/04/28 10:27:43;;;;;;;14.68;9.75;;;23.10;44.30;;;;;;5039557;28;20116;-75
2021/04/28 10:30:14;;;;;;;17.38;10.07;;;23.00;44.20;;;;;;5051010;28;20033;-75
2021/04/28 10:32:41;;;;;;;17.63;8.20;;;23.00;42.40;;;;;;5052054;28;20037;-75
2021/04/28 10:35:15;;;;;;;14.77;9.20;;;23.10;42.90;;;;;;5051563;28;20108;-75
2021/04/28 10:37:44;;;;;;;17.42;10.77;;;22.80;44.10;;;;;;5044724;28;20035;-75
2021/04/28 10:40:15;;;;;;;19.50;10.70;;;22.70;44.40;;;;;;5045178;28;20071;-76
2021/04/28 10:42:42;;;;;;;18.92;9.90;;;22.70;45.30;;;;;;5050933;28;20037;-75
2021/04/28 10:45:10;;;;;;;12.80;9.27;;;22.70;44.70;;;;;;5048799;28;20056;-76
2021/04/28 10:47:40;;;;;;;12.98;9.20;;;22.70;44.80;;;;;;5050235;28;20025;-75
2021/04/28 10:50:05;;;;;;;14.63;9.30;;;22.70;44.40;;;;;;5050751;28;20427;-77
2021/04/28 10:52:36;;;;;;;13.00;9.13;;;23.00;43.70;;;;;;5050937;28;20025;-76
2021/04/28 10:55:04;;;;;;;18.10;9.17;;;23.20;43.20;;;;;;5018334;28;20099;-78
2021/04/28 10:57:40;;;;;;;15.07;9.35;;;23.80;42.50;;;;;;5040998;28;20635;-77
2021/04/28 11:00:21;;;;;;;18.88;9.90;;;23.60;41.80;;;;;;5032984;28;20033;-76
2021/04/28 11:02:47;;;;;;;15.80;8.67;;;23.40;42.10;;;;;;5045910;28;20043;-76
2021/04/28 11:05:26;;;;;;;14.13;8.35;;;23.60;41.70;;;;;;5045961;28;20025;-76
2021/04/28 11:08:01;;;;;;;18.77;9.80;;;24.10;41.00;;;;;;5023751;28;20033;-76
2021/04/28 11:10:35;;;;;;;11.90;8.07;;;24.00;41.60;;;;;;5050535;28;20440;-76
2021/04/28 11:13:17;;;;;;;11.65;7.93;;;24.00;41.30;;;;;;5041619;28;20086;-76
2021/04/28 11:15:53;;;;;;;13.77;8.13;;;24.30;40.70;;;;;;5045406;28;20104;-76
2021/04/28 11:18:33;;;;;;;11.82;8.02;;;24.40;39.50;;;;;;5037048;28;20425;-76
2021/04/28 11:21:17;;;;;;;11.13;7.68;;;23.90;39.60;;;;;;5035159;28;20429;-76
2021/04/28 11:24:12;;;;;;;13.20;7.15;;;23.50;40.20;;;;;;5050876;28;20591;-74
2021/04/28 11:26:39;;;;;;;17.90;8.18;;;23.60;39.40;;;;;;5036329;28;20044;-76
2021/04/28 11:29:07;;;;;;;13.13;9.00;;;24.10;40.30;;;;;;5015854;28;20068;-76
2021/04/28 11:31:46;;;;;;;10.98;8.52;;;24.30;40.30;;;;;;5049709;28;20029;-75
2021/04/28 11:34:18;;;;;;;14.05;9.18;;;24.40;39.60;;;;;;5017539;28;20296;-76
2021/04/28 11:36:52;;;;;;;11.30;8.57;;;24.60;40.30;;;;;;5025617;28;20025;-76
2021/04/28 11:39:40;;;;;;;21.48;8.82;;;24.80;40.60;;;;;;5049999;28;20052;-76
2021/04/28 11:42:13;;;;;;;13.35;8.63;;;24.50;40.40;;;;;;5050495;28;20384;-75
2021/04/28 11:44:48;;;;;;;11.60;8.40;;;24.30;40.20;;;;;;5049219;28;20021;-76
2021/04/28 11:47:18;;;;;;;12.27;7.22;;;24.70;39.30;;;;;;5037382;28;20473;-76
2021/04/28 11:49:47;;;;;;;13.33;8.27;;;24.80;39.10;;;;;;5048708;28;20104;-76
2021/04/28 11:52:14;;;;;;;10.10;7.47;;;24.50;39.60;;;;;;5035157;28;20076;-76
2021/04/28 11:54:41;;;;;;;14.93;7.65;;;24.50;39.60;;;;;;5049682;28;20017;-76
2021/04/28 11:57:08;;;;;;;11.95;7.90;;;24.30;39.80;;;;;;5049361;28;20025;-75
2021/04/28 11:59:36;;;;;;;11.95;6.25;;;23.70;40.80;;;;;;5042409;28;20021;-75
2021/04/28 12:02:32;;;;;;;10.30;6.00;;;23.80;39.00;;;;;;5059680;22;20080;-92
2021/04/28 12:05:39;;;;;;;12.70;7.03;;;23.60;38.20;;;;;;5054089;28;20064;-92
2021/04/28 12:08:36;;;;;;;11.50;7.32;;;23.90;39.20;;;;;;5029312;28;20048;-92
2021/04/28 12:11:31;;;;;;;11.77;6.15;;;24.10;39.40;;;;;;5030006;28;20087;-93
2021/04/28 12:14:42;;;;;;;11.43;7.30;;;23.70;39.70;;;;;;5042748;28;20032;-93
2021/04/28 12:17:33;;;;;;;10.52;5.97;;;23.30;39.70;;;;;;5055385;28;20025;-92
2021/04/28 12:20:55;;;;;;;;;;;;;;;;;;;;;
2021/04/28 12:24:05;;;;;;;10.07;6.25;;;22.90;41.00;;;;;;5049101;28;20104;-93
2021/04/28 12:27:26;;;;;;;11.77;6.07;;;23.10;41.20;;;;;;5024603;28;20494;-92
2021/04/28 12:30:34;;;;;;;14.85;6.40;;;23.20;40.80;;;;;;5047442;28;20043;-93
2021/04/28 12:33:16;;;;;;;14.52;7.55;;;23.30;41.30;;;;;;5032372;28;20017;-92
2021/04/28 12:36:16;;;;;;;18.13;8.63;;;22.70;41.80;;;;;;5028658;28;20021;-93
2021/04/28 12:39:51;;;;;;;15.75;6.45;;;23.00;41.40;;;;;;5017317;28;20025;-93
2021/04/28 12:42:42;;;;;;;14.55;7.38;;;22.60;41.20;;;;;;5041647;28;20025;-92
2021/04/28 12:45:21;;;;;;;15.65;6.53;;;22.50;41.90;;;;;;5038257;28;20108;-93
2021/04/28 12:48:03;;;;;;;18.92;7.20;;;22.30;42.00;;;;;;5029801;28;20035;-93
2021/04/28 12:50:34;;;;;;;7.93;6.00;;;22.30;42.60;;;;;;5035257;28;20021;-92